sensor_id;sensor_type;location;lat;lon;timestamp;P1;durP1;ratioP1;P2;durP2;ratioP2
3817;SDS011;1924;48.078;11.516;2023-06-24T04:00:41;34.17;;;0.80;;
3817;SDS011;1924;48.078;11.516;2023-06-24T04:03:08;33.97;;;0.80;;
3817;SDS011;1924;48.078;11.516;2023-06-24T04:05:34;34.10;;;0.80;;
3817;SDS011;1924;48.078;11.516;2023-06-24T04:08:01;34.10;;;0.80;;
3817;SDS011;1924;48.078;11.516;2023-06-24T04:10:30;33.97;;;0.80;;
3817;SDS011;1924;48.078;11.516;2023-06-24T04:12:57;33.93;;;0.80;;
3817;SDS011;1924;48.078;11.516;2023-06-24T04:15:24;34.07;;;0.80;;
3817;SDS011;1924;48.078;11.516;2023-06-24T04:17:52;34.00;;;0.80;;
3817;SDS011;1924;48.078;11.516;2023-06-24T04:20:19;33.97;;;0.80;;
3817;SDS011;1924;48.078;11.516;2023-06-24T04:22:45;34.00;;;0.80;;
3817;SDS011;1924;48.078;11.516;2023-06-24T04:25:12;34.00;;;0.80;;
3817;SDS011;1924;48.078;11.516;2023-06-24T04:27:39;33.90;;;0.80;;
3817;SDS011;1924;48.078;11.516;2023-06-24T04:30:06;34.00;;;0.80;;
3817;SDS011;1924;48.078;11.516;2023-06-24T04:32:35;33.90;;;0.80;;
3817;SDS011;1924;48.078;11.516;2023-06-24T04:35:03;33.97;;;0.80;;
3817;SDS011;1924;48.078;11.516;2023-06-24T04:37:30;33.87;;;0.80;;
3817;SDS011;1924;48.078;11.516;2023-06-24T04:39:57;33.87;;;0.80;;
3817;SDS011;1924;48.078;11.516;2023-06-24T04:42:23;33.93;;;0.80;;
3817;SDS011;1924;48.078;11.516;2023-06-24T04:44:50;33.90;;;0.80;;
3817;SDS011;1924;48.078;11.516;2023-06-24T04:47:17;34.00;;;0.80;;
3817;SDS011;1924;48.078;11.516;2023-06-24T04:49:44;33.90;;;0.80;;
3817;SDS011;1924;48.078;11.516;2023-06-24T04:52:13;33.83;;;0.80;;
3817;SDS011;1924;48.078;11.516;2023-06-24T04:54:40;33.97;;;0.80;;
3817;SDS011;1924;48.078;11.516;2023-06-24T04:57:08;33.80;;;0.80;;
3817;SDS011;1924;48.078;11.516;2023-06-24T04:59:36;34.00;;;0.80;;
3817;SDS011;1924;48.078;11.516;2023-06-24T05:02:03;33.73;;;0.80;;
3817;SDS011;1924;48.078;11.516;2023-06-24T05:04:36;33.67;;;0.80;;
3817;SDS011;1924;48.078;11.516;2023-06-24T05:07:03;33.90;;;0.80;;
3817;SDS011;1924;48.078;11.516;2023-06-24T05:09:31;33.67;;;0.80;;
3817;SDS011;1924;48.078;11.516;2023-06-24T05:11:58;33.80;;;0.80;;
3817;SDS011;1924;48.078;11.516;2023-06-24T05:14:25;34.00;;;0.80;;
3817;SDS011;1924;48.078;11.516;2023-06-24T05:16:51;33.87;;;0.80;;
3817;SDS011;1924;48.078;11.516;2023-06-24T05:19:18;33.77;;;0.80;;
3817;SDS011;1924;48.078;11.516;2023-06-24T05:21:45;33.90;;;0.80;;
3817;SDS011;1924;48.078;11.516;2023-06-24T05:24:11;33.87;;;0.80;;
3817;SDS011;1924;48.078;11.516;2023-06-24T05:26:40;33.90;;;0.80;;
3817;SDS011;1924;48.078;11.516;2023-06-24T05:29:07;33.80;;;0.80;;
3817;SDS011;1924;48.078;11.516;2023-06-24T05:31:33;34.00;;;0.80;;
3817;SDS011;1924;48.078;11.516;2023-06-24T05:34:00;34.07;;;0.80;;
3817;SDS011;1924;48.078;11.516;2023-06-24T05:36:28;33.90;;;0.80;;
3817;SDS011;1924;48.078;11.516;2023-06-24T05:38:54;34.00;;;0.80;;
3817;SDS011;1924;48.078;11.516;2023-06-24T05:41:21;33.87;;;0.80;;
3817;SDS011;1924;48.078;11.516;2023-06-24T05:43:49;34.10;;;0.80;;
3817;SDS011;1924;48.078;11.516;2023-06-24T05:46:27;34.03;;;0.80;;
3817;SDS011;1924;48.078;11.516;2023-06-24T05:48:54;34.03;;;0.80;;
3817;SDS011;1924;48.078;11.516;2023-06-24T05:51:21;34.07;;;0.80;;
3817;SDS011;1924;48.078;11.516;2023-06-24T05:53:48;33.97;;;0.80;;
3817;SDS011;1924;48.078;11.516;2023-06-24T05:56:14;33.93;;;0.80;;
3817;SDS011;1924;48.078;11.516;2023-06-24T05:58:41;34.20;;;0.80;;
3817;SDS011;1924;48.078;11.516;2023-06-24T06:01:10;34.03;;;0.80;;
3817;SDS011;1924;48.078;11.516;2023-06-24T06:03:37;33.77;;;0.80;;
3817;SDS011;1924;48.078;11.516;2023-06-24T06:06:04;34.30;;;0.80;;
3817;SDS011;1924;48.078;11.516;2023-06-24T06:08:32;33.97;;;0.80;;
3817;SDS011;1924;48.078;11.516;2023-06-24T06:10:58;33.87;;;0.80;;
3817;SDS011;1924;48.078;11.516;2023-06-24T06:13:27;34.30;;;0.80;;
3817;SDS011;1924;48.078;11.516;2023-06-24T06:15:53;34.20;;;0.80;;
3817;SDS011;1924;48.078;11.516;2023-06-24T06:18:21;34.13;;;0.80;;
3817;SDS011;1924;48.078;11.516;2023-06-24T06:20:48;33.93;;;0.80;;
3817;SDS011;1924;48.078;11.516;2023-06-24T06:23:16;34.27;;;0.80;;
3817;SDS011;1924;48.078;11.516;2023-06-24T06:25:43;34.10;;;0.80;;
3817;SDS011;1924;48.078;11.516;2023-06-24T06:28:10;34.03;;;0.80;;
3817;SDS011;1924;48.078;11.516;2023-06-24T06:30:36;34.27;;;0.80;;
3817;SDS011;1924;48.078;11.516;2023-06-24T06:33:04;34.17;;;0.80;;
3817;SDS011;1924;48.078;11.516;2023-06-24T06:35:33;34.00;;;0.80;;
3817;SDS011;1924;48.078;11.516;2023-06-24T06:37:59;34.13;;;0.80;;
3817;SDS011;1924;48.078;11.516;2023-06-24T06:40:26;33.97;;;0.80;;
3817;SDS011;1924;48.078;11.516;2023-06-24T06:42:53;34.00;;;0.80;;
3817;SDS011;1924;48.078;11.516;2023-06-24T06:45:20;34.10;;;0.80;;
3817;SDS011;1924;48.078;11.516;2023-06-24T06:47:47;34.20;;;0.80;;
3817;SDS011;1924;48.078;11.516;2023-06-24T06:50:14;33.93;;;0.80;;
3817;SDS011;1924;48.078;11.516;2023-06-24T06:52:43;34.30;;;0.80;;
3817;SDS011;1924;48.078;11.516;2023-06-24T06:55:09;34.07;;;0.80;;
3817;SDS011;1924;48.078;11.516;2023-06-24T06:57:36;34.20;;;0.80;;
3817;SDS011;1924;48.078;11.516;2023-06-24T07:00:03;33.93;;;0.80;;
3817;SDS011;1924;48.078;11.516;2023-06-24T07:02:31;34.10;;;0.80;;
3817;SDS011;1924;48.078;11.516;2023-06-24T07:04:58;34.37;;;0.80;;
3817;SDS011;1924;48.078;11.516;2023-06-24T07:07:25;34.23;;;0.80;;
3817;SDS011;1924;48.078;11.516;2023-06-24T07:09:53;34.23;;;0.80;;
3817;SDS011;1924;48.078;11.516;2023-06-24T07:12:21;33.97;;;0.80;;
3817;SDS011;1924;48.078;11.516;2023-06-24T07:14:48;34.17;;;0.80;;
3817;SDS011;1924;48.078;11.516;2023-06-24T07:17:15;34.13;;;0.80;;
3817;SDS011;1924;48.078;11.516;2023-06-24T07:19:42;34.20;;;0.80;;
3817;SDS011;1924;48.078;11.516;2023-06-24T07:22:10;34.30;;;0.80;;
3817;SDS011;1924;48.078;11.516;2023-06-24T07:24:37;34.50;;;0.80;;
3817;SDS011;1924;48.078;11.516;2023-06-24T07:27:07;34.27;;;0.80;;
3817;SDS011;1924;48.078;11.516;2023-06-24T07:29:34;34.47;;;0.80;;
3817;SDS011;1924;48.078;11.516;2023-06-24T07:32:01;34.40;;;0.80;;
3817;SDS011;1924;48.078;11.516;2023-06-24T07:34:28;34.33;;;0.80;;
3817;SDS011;1924;48.078;11.516;2023-06-24T07:36:55;34.30;;;0.80;;
3817;SDS011;1924;48.078;11.516;2023-06-24T07:39:22;34.20;;;0.80;;
3817;SDS011;1924;48.078;11.516;2023-06-24T07:41:49;34.27;;;0.80;;
3817;SDS011;1924;48.078;11.516;2023-06-24T07:44:17;34.20;;;0.80;;
3817;SDS011;1924;48.078;11.516;2023-06-24T07:46:44;34.50;;;0.80;;
3817;SDS011;1924;48.078;11.516;2023-06-24T07:49:11;34.27;;;0.80;;
3817;SDS011;1924;48.078;11.516;2023-06-24T07:51:37;34.40;;;0.80;;
3817;SDS011;1924;48.078;11.516;2023-06-24T07:54:04;34.37;;;0.80;;
3817;SDS011;1924;48.078;11.516;2023-06-24T07:56:31;34.47;;;0.80;;
3817;SDS011;1924;48.078;11.516;2023-06-24T07:58:57;34.47;;;0.80;;
3817;SDS011;1924;48.078;11.516;2023-06-24T08:01:25;34.40;;;0.80;;
3817;SDS011;1924;48.078;11.516;2023-06-24T08:03:52;34.30;;;0.80;;
3817;SDS011;1924;48.078;11.516;2023-06-24T08:06:19;34.20;;;0.80;;
3817;SDS011;1924;48.078;11.516;2023-06-24T08:08:46;34.27;;;0.80;;
3817;SDS011;1924;48.078;11.516;2023-06-24T08:11:13;34.23;;;0.80;;
3817;SDS011;1924;48.078;11.516;2023-06-24T08:13:39;34.10;;;0.80;;
3817;SDS011;1924;48.078;11.516;2023-06-24T08:16:06;34.30;;;0.80;;
3817;SDS011;1924;48.078;11.516;2023-06-24T08:18:34;34.03;;;0.80;;
3817;SDS011;1924;48.078;11.516;2023-06-24T08:21:01;34.07;;;0.80;;
3817;SDS011;1924;48.078;11.516;2023-06-24T08:23:28;34.13;;;0.80;;
3817;SDS011;1924;48.078;11.516;2023-06-24T08:25:55;34.27;;;0.80;;
3817;SDS011;1924;48.078;11.516;2023-06-24T08:28:22;34.13;;;0.80;;
3817;SDS011;1924;48.078;11.516;2023-06-24T08:30:48;34.37;;;0.80;;
3817;SDS011;1924;48.078;11.516;2023-06-24T08:33:15;34.07;;;0.80;;
3817;SDS011;1924;48.078;11.516;2023-06-24T08:35:43;34.27;;;0.90;;
3817;SDS011;1924;48.078;11.516;2023-06-24T08:38:10;33.97;;;0.80;;
3817;SDS011;1924;48.078;11.516;2023-06-24T08:40:36;33.97;;;0.80;;
3817;SDS011;1924;48.078;11.516;2023-06-24T08:43:05;34.03;;;0.80;;
3817;SDS011;1924;48.078;11.516;2023-06-24T08:45:32;34.10;;;0.80;;
3817;SDS011;1924;48.078;11.516;2023-06-24T08:47:59;34.07;;;0.80;;
3817;SDS011;1924;48.078;11.516;2023-06-24T08:50:35;34.03;;;0.80;;
3817;SDS011;1924;48.078;11.516;2023-06-24T08:53:06;34.20;;;0.80;;
3817;SDS011;1924;48.078;11.516;2023-06-24T08:55:35;33.97;;;0.80;;
3817;SDS011;1924;48.078;11.516;2023-06-24T08:58:06;34.10;;;0.80;;
3817;SDS011;1924;48.078;11.516;2023-06-24T09:00:33;34.20;;;0.80;;
3817;SDS011;1924;48.078;11.516;2023-06-24T09:03:00;33.97;;;0.80;;
3817;SDS011;1924;48.078;11.516;2023-06-24T09:05:27;34.23;;;0.80;;
3817;SDS011;1924;48.078;11.516;2023-06-24T09:07:53;34.00;;;0.80;;
3817;SDS011;1924;48.078;11.516;2023-06-24T09:10:31;34.07;;;0.80;;
3817;SDS011;1924;48.078;11.516;2023-06-24T09:12:59;34.03;;;0.80;;
3817;SDS011;1924;48.078;11.516;2023-06-24T09:15:29;34.03;;;0.80;;
3817;SDS011;1924;48.078;11.516;2023-06-24T09:17:57;34.17;;;0.80;;
3817;SDS011;1924;48.078;11.516;2023-06-24T09:20:25;34.10;;;0.80;;
3817;SDS011;1924;48.078;11.516;2023-06-24T09:22:57;34.17;;;0.80;;
3817;SDS011;1924;48.078;11.516;2023-06-24T09:25:24;33.93;;;0.80;;
3817;SDS011;1924;48.078;11.516;2023-06-24T09:27:52;34.17;;;0.80;;
3817;SDS011;1924;48.078;11.516;2023-06-24T09:30:21;34.10;;;0.80;;
3817;SDS011;1924;48.078;11.516;2023-06-24T09:32:49;33.87;;;0.80;;
3817;SDS011;1924;48.078;11.516;2023-06-24T09:35:17;34.07;;;0.80;;
3817;SDS011;1924;48.078;11.516;2023-06-24T09:37:49;34.17;;;0.80;;
3817;SDS011;1924;48.078;11.516;2023-06-24T09:40:16;34.20;;;0.80;;
3817;SDS011;1924;48.078;11.516;2023-06-24T09:42:54;33.73;;;0.80;;
3817;SDS011;1924;48.078;11.516;2023-06-24T09:45:23;34.10;;;0.80;;
3817;SDS011;1924;48.078;11.516;2023-06-24T09:47:51;34.20;;;0.80;;
3817;SDS011;1924;48.078;11.516;2023-06-24T09:50:17;34.00;;;0.80;;
3817;SDS011;1924;48.078;11.516;2023-06-24T09:52:45;34.07;;;0.80;;
3817;SDS011;1924;48.078;11.516;2023-06-24T09:55:12;34.07;;;0.80;;
3817;SDS011;1924;48.078;11.516;2023-06-24T09:57:40;34.07;;;0.80;;
3817;SDS011;1924;48.078;11.516;2023-06-24T10:00:12;34.23;;;0.80;;
3817;SDS011;1924;48.078;11.516;2023-06-24T10:02:41;34.17;;;0.80;;
3817;SDS011;1924;48.078;11.516;2023-06-24T10:05:08;34.23;;;0.80;;
3817;SDS011;1924;48.078;11.516;2023-06-24T10:07:35;34.43;;;0.80;;
3817;SDS011;1924;48.078;11.516;2023-06-24T10:10:05;34.30;;;0.80;;
3817;SDS011;1924;48.078;11.516;2023-06-24T10:12:33;34.57;;;0.80;;
3817;SDS011;1924;48.078;11.516;2023-06-24T10:15:01;34.37;;;0.80;;
3817;SDS011;1924;48.078;11.516;2023-06-24T10:17:30;34.33;;;0.80;;
3817;SDS011;1924;48.078;11.516;2023-06-24T10:19:57;34.43;;;0.80;;
3817;SDS011;1924;48.078;11.516;2023-06-24T10:22:23;34.67;;;0.80;;
3817;SDS011;1924;48.078;11.516;2023-06-24T10:24:51;34.70;;;0.80;;
3817;SDS011;1924;48.078;11.516;2023-06-24T10:27:19;34.50;;;0.80;;
3817;SDS011;1924;48.078;11.516;2023-06-24T10:29:48;34.40;;;0.80;;
3817;SDS011;1924;48.078;11.516;2023-06-24T10:32:15;34.40;;;0.80;;
3817;SDS011;1924;48.078;11.516;2023-06-24T10:34:45;34.47;;;0.80;;
3817;SDS011;1924;48.078;11.516;2023-06-24T10:37:13;34.47;;;0.80;;
3817;SDS011;1924;48.078;11.516;2023-06-24T10:39:45;34.50;;;0.80;;
3817;SDS011;1924;48.078;11.516;2023-06-24T10:42:25;34.43;;;0.80;;
3817;SDS011;1924;48.078;11.516;2023-06-24T10:44:56;34.63;;;0.90;;
3817;SDS011;1924;48.078;11.516;2023-06-24T10:47:23;34.50;;;0.80;;
3817;SDS011;1924;48.078;11.516;2023-06-24T10:49:52;34.63;;;0.80;;
3817;SDS011;1924;48.078;11.516;2023-06-24T10:52:20;34.33;;;0.80;;
3817;SDS011;1924;48.078;11.516;2023-06-24T10:54:48;34.43;;;0.80;;
3817;SDS011;1924;48.078;11.516;2023-06-24T10:57:20;34.47;;;0.80;;
3817;SDS011;1924;48.078;11.516;2023-06-24T10:59:48;34.40;;;0.80;;
3817;SDS011;1924;48.078;11.516;2023-06-24T11:02:15;34.60;;;0.80;;
3817;SDS011;1924;48.078;11.516;2023-06-24T11:04:43;34.50;;;0.80;;
3817;SDS011;1924;48.078;11.516;2023-06-24T11:07:12;34.40;;;0.80;;
3817;SDS011;1924;48.078;11.516;2023-06-24T11:09:40;34.47;;;0.80;;
3817;SDS011;1924;48.078;11.516;2023-06-24T11:12:08;34.50;;;0.80;;
3817;SDS011;1924;48.078;11.516;2023-06-24T11:14:36;34.47;;;0.80;;
3817;SDS011;1924;48.078;11.516;2023-06-24T11:17:04;34.37;;;0.80;;
3817;SDS011;1924;48.078;11.516;2023-06-24T11:19:31;34.50;;;0.80;;
3817;SDS011;1924;48.078;11.516;2023-06-24T11:22:01;34.53;;;0.80;;
3817;SDS011;1924;48.078;11.516;2023-06-24T11:24:29;34.70;;;0.80;;
3817;SDS011;1924;48.078;11.516;2023-06-24T11:26:56;34.67;;;0.80;;
3817;SDS011;1924;48.078;11.516;2023-06-24T11:29:24;34.53;;;0.80;;
3817;SDS011;1924;48.078;11.516;2023-06-24T11:31:54;34.50;;;0.80;;
3817;SDS011;1924;48.078;11.516;2023-06-24T11:34:21;34.60;;;0.80;;
3817;SDS011;1924;48.078;11.516;2023-06-24T11:36:47;34.60;;;0.80;;
3817;SDS011;1924;48.078;11.516;2023-06-24T11:39:21;34.47;;;0.80;;
3817;SDS011;1924;48.078;11.516;2023-06-24T11:41:50;34.53;;;0.80;;
3817;SDS011;1924;48.078;11.516;2023-06-24T11:44:18;34.43;;;0.80;;
3817;SDS011;1924;48.078;11.516;2023-06-24T11:46:45;34.33;;;0.80;;
3817;SDS011;1924;48.078;11.516;2023-06-24T11:49:12;34.47;;;0.80;;
3817;SDS011;1924;48.078;11.516;2023-06-24T11:51:44;34.33;;;0.80;;
3817;SDS011;1924;48.078;11.516;2023-06-24T11:54:13;34.60;;;0.80;;
3817;SDS011;1924;48.078;11.516;2023-06-24T11:56:41;34.50;;;0.80;;
3817;SDS011;1924;48.078;11.516;2023-06-24T11:59:16;34.40;;;0.80;;
3817;SDS011;1924;48.078;11.516;2023-06-24T12:01:44;34.53;;;0.80;;
3817;SDS011;1924;48.078;11.516;2023-06-24T12:04:11;34.63;;;0.80;;
3817;SDS011;1924;48.078;11.516;2023-06-24T12:06:38;34.50;;;0.80;;
3817;SDS011;1924;48.078;11.516;2023-06-24T12:09:05;34.60;;;0.80;;
3817;SDS011;1924;48.078;11.516;2023-06-24T12:11:31;34.47;;;0.80;;
3817;SDS011;1924;48.078;11.516;2023-06-24T12:13:58;34.67;;;0.80;;
3817;SDS011;1924;48.078;11.516;2023-06-24T12:16:26;34.80;;;0.80;;
3817;SDS011;1924;48.078;11.516;2023-06-24T12:18:53;34.63;;;0.80;;
3817;SDS011;1924;48.078;11.516;2023-06-24T12:21:20;34.50;;;0.80;;
3817;SDS011;1924;48.078;11.516;2023-06-24T12:23:47;34.67;;;0.80;;
3817;SDS011;1924;48.078;11.516;2023-06-24T12:26:13;34.40;;;0.80;;
3817;SDS011;1924;48.078;11.516;2023-06-24T12:28:41;34.60;;;0.80;;
3817;SDS011;1924;48.078;11.516;2023-06-24T12:31:07;34.53;;;0.80;;
3817;SDS011;1924;48.078;11.516;2023-06-24T12:33:35;34.67;;;0.80;;
3817;SDS011;1924;48.078;11.516;2023-06-24T12:36:02;34.60;;;0.80;;
3817;SDS011;1924;48.078;11.516;2023-06-24T12:38:29;34.60;;;0.80;;
3817;SDS011;1924;48.078;11.516;2023-06-24T12:40:56;34.50;;;0.80;;
3817;SDS011;1924;48.078;11.516;2023-06-24T12:43:23;34.40;;;0.80;;
3817;SDS011;1924;48.078;11.516;2023-06-24T12:45:50;34.47;;;0.80;;
3817;SDS011;1924;48.078;11.516;2023-06-24T12:48:17;34.43;;;0.80;;
3817;SDS011;1924;48.078;11.516;2023-06-24T12:50:45;34.47;;;0.80;;
3817;SDS011;1924;48.078;11.516;2023-06-24T12:53:12;34.60;;;0.80;;
3817;SDS011;1924;48.078;11.516;2023-06-24T12:55:40;34.60;;;0.80;;
3817;SDS011;1924;48.078;11.516;2023-06-24T12:58:07;34.70;;;0.80;;
3817;SDS011;1924;48.078;11.516;2023-06-24T13:00:34;34.40;;;0.80;;
3817;SDS011;1924;48.078;11.516;2023-06-24T13:03:00;34.77;;;0.80;;
3817;SDS011;1924;48.078;11.516;2023-06-24T13:05:27;34.67;;;0.80;;
3817;SDS011;1924;48.078;11.516;2023-06-24T13:07:55;34.67;;;0.80;;
3817;SDS011;1924;48.078;11.516;2023-06-24T13:10:22;34.60;;;0.80;;
3817;SDS011;1924;48.078;11.516;2023-06-24T13:12:49;34.47;;;0.80;;
3817;SDS011;1924;48.078;11.516;2023-06-24T13:15:16;34.60;;;0.80;;
3817;SDS011;1924;48.078;11.516;2023-06-24T13:17:43;34.23;;;0.80;;
3817;SDS011;1924;48.078;11.516;2023-06-24T13:20:10;34.50;;;0.80;;
3817;SDS011;1924;48.078;11.516;2023-06-24T13:22:37;34.80;;;0.80;;
3817;SDS011;1924;48.078;11.516;2023-06-24T13:25:06;34.60;;;0.80;;
3817;SDS011;1924;48.078;11.516;2023-06-24T13:27:33;34.70;;;0.80;;
3817;SDS011;1924;48.078;11.516;2023-06-24T13:30:00;34.70;;;0.80;;
3817;SDS011;1924;48.078;11.516;2023-06-24T13:32:29;34.73;;;0.80;;
3817;SDS011;1924;48.078;11.516;2023-06-24T13:34:55;34.67;;;0.80;;
3817;SDS011;1924;48.078;11.516;2023-06-24T13:37:22;34.60;;;0.80;;
3817;SDS011;1924;48.078;11.516;2023-06-24T13:39:50;34.80;;;0.80;;
3817;SDS011;1924;48.078;11.516;2023-06-24T13:42:18;34.70;;;0.80;;
3817;SDS011;1924;48.078;11.516;2023-06-24T13:44:45;34.73;;;0.80;;
3817;SDS011;1924;48.078;11.516;2023-06-24T13:47:11;34.63;;;0.80;;
3817;SDS011;1924;48.078;11.516;2023-06-24T13:49:39;34.70;;;0.80;;
3817;SDS011;1924;48.078;11.516;2023-06-24T13:52:06;34.97;;;0.80;;
3817;SDS011;1924;48.078;11.516;2023-06-24T13:54:33;34.77;;;0.80;;
3817;SDS011;1924;48.078;11.516;2023-06-24T13:57:00;34.77;;;0.80;;
3817;SDS011;1924;48.078;11.516;2023-06-24T13:59:28;34.73;;;0.80;;
3817;SDS011;1924;48.078;11.516;2023-06-24T14:01:55;34.87;;;0.80;;
3817;SDS011;1924;48.078;11.516;2023-06-24T14:04:21;34.50;;;0.80;;
3817;SDS011;1924;48.078;11.516;2023-06-24T14:06:48;34.70;;;0.80;;
3817;SDS011;1924;48.078;11.516;2023-06-24T14:09:15;34.70;;;0.80;;
3817;SDS011;1924;48.078;11.516;2023-06-24T14:11:43;34.53;;;0.80;;
3817;SDS011;1924;48.078;11.516;2023-06-24T14:14:10;34.70;;;0.80;;
3817;SDS011;1924;48.078;11.516;2023-06-24T14:16:38;34.67;;;0.80;;
3817;SDS011;1924;48.078;11.516;2023-06-24T14:19:04;34.80;;;0.80;;
3817;SDS011;1924;48.078;11.516;2023-06-24T14:21:31;34.63;;;0.80;;
3817;SDS011;1924;48.078;11.516;2023-06-24T14:23:58;34.67;;;0.80;;
3817;SDS011;1924;48.078;11.516;2023-06-24T14:26:25;34.73;;;0.80;;
3817;SDS011;1924;48.078;11.516;2023-06-24T14:28:51;34.70;;;0.80;;
3817;SDS011;1924;48.078;11.516;2023-06-24T14:31:18;34.63;;;0.80;;
3817;SDS011;1924;48.078;11.516;2023-06-24T14:33:46;34.57;;;0.80;;
3817;SDS011;1924;48.078;11.516;2023-06-24T14:36:13;34.63;;;0.80;;
3817;SDS011;1924;48.078;11.516;2023-06-24T14:38:40;34.60;;;0.80;;
3817;SDS011;1924;48.078;11.516;2023-06-24T14:41:08;34.50;;;0.80;;
3817;SDS011;1924;48.078;11.516;2023-06-24T14:43:34;34.60;;;0.80;;
3817;SDS011;1924;48.078;11.516;2023-06-24T14:46:01;34.57;;;0.80;;
3817;SDS011;1924;48.078;11.516;2023-06-24T14:48:28;34.73;;;0.80;;
3817;SDS011;1924;48.078;11.516;2023-06-24T14:50:56;34.67;;;0.80;;
3817;SDS011;1924;48.078;11.516;2023-06-24T14:53:23;34.57;;;0.80;;
3817;SDS011;1924;48.078;11.516;2023-06-24T14:55:49;34.57;;;0.80;;
3817;SDS011;1924;48.078;11.516;2023-06-24T14:58:16;34.67;;;0.80;;
3817;SDS011;1924;48.078;11.516;2023-06-24T15:00:43;34.77;;;0.80;;
3817;SDS011;1924;48.078;11.516;2023-06-24T15:03:10;34.63;;;0.80;;
3817;SDS011;1924;48.078;11.516;2023-06-24T15:05:38;34.57;;;0.80;;
3817;SDS011;1924;48.078;11.516;2023-06-24T15:08:06;34.70;;;0.80;;
3817;SDS011;1924;48.078;11.516;2023-06-24T15:10:33;34.57;;;0.80;;
3817;SDS011;1924;48.078;11.516;2023-06-24T15:13:00;34.80;;;0.80;;
3817;SDS011;1924;48.078;11.516;2023-06-24T15:15:26;34.47;;;0.80;;
3817;SDS011;1924;48.078;11.516;2023-06-24T15:17:54;34.63;;;0.80;;
3817;SDS011;1924;48.078;11.516;2023-06-24T15:20:21;34.60;;;0.80;;
3817;SDS011;1924;48.078;11.516;2023-06-24T15:22:48;34.60;;;0.80;;
3817;SDS011;1924;48.078;11.516;2023-06-24T15:25:16;34.50;;;0.80;;
3817;SDS011;1924;48.078;11.516;2023-06-24T15:27:42;34.67;;;0.80;;
3817;SDS011;1924;48.078;11.516;2023-06-24T15:30:09;34.70;;;0.80;;
3817;SDS011;1924;48.078;11.516;2023-06-24T15:32:36;34.77;;;0.80;;
3817;SDS011;1924;48.078;11.516;2023-06-24T15:35:03;34.67;;;0.80;;
3817;SDS011;1924;48.078;11.516;2023-06-24T15:37:30;34.70;;;0.80;;
3817;SDS011;1924;48.078;11.516;2023-06-24T15:39:57;34.80;;;0.80;;
3817;SDS011;1924;48.078;11.516;2023-06-24T15:42:25;34.70;;;0.80;;
3817;SDS011;1924;48.078;11.516;2023-06-24T15:44:52;34.53;;;0.80;;
3817;SDS011;1924;48.078;11.516;2023-06-24T15:47:19;34.60;;;0.80;;
3817;SDS011;1924;48.078;11.516;2023-06-24T15:49:45;34.53;;;0.80;;
3817;SDS011;1924;48.078;11.516;2023-06-24T15:52:12;34.63;;;0.80;;
3817;SDS011;1924;48.078;11.516;2023-06-24T15:54:39;34.63;;;0.80;;
3817;SDS011;1924;48.078;11.516;2023-06-24T15:57:06;34.57;;;0.80;;
3817;SDS011;1924;48.078;11.516;2023-06-24T15:59:34;34.63;;;0.80;;
3817;SDS011;1924;48.078;11.516;2023-06-24T16:02:01;34.67;;;0.80;;
3817;SDS011;1924;48.078;11.516;2023-06-24T16:04:27;34.70;;;0.80;;
3817;SDS011;1924;48.078;11.516;2023-06-24T16:06:54;34.57;;;0.80;;
3817;SDS011;1924;48.078;11.516;2023-06-24T16:09:21;34.77;;;0.80;;
3817;SDS011;1924;48.078;11.516;2023-06-24T16:11:47;34.57;;;0.80;;
3817;SDS011;1924;48.078;11.516;2023-06-24T16:14:14;34.60;;;0.80;;
3817;SDS011;1924;48.078;11.516;2023-06-24T16:16:42;34.80;;;0.80;;
3817;SDS011;1924;48.078;11.516;2023-06-24T16:19:09;34.57;;;0.80;;
3817;SDS011;1924;48.078;11.516;2023-06-24T16:21:36;34.73;;;0.80;;
3817;SDS011;1924;48.078;11.516;2023-06-24T16:24:02;34.67;;;0.80;;
3817;SDS011;1924;48.078;11.516;2023-06-24T16:26:29;34.87;;;0.80;;
3817;SDS011;1924;48.078;11.516;2023-06-24T16:28:56;34.50;;;0.80;;
3817;SDS011;1924;48.078;11.516;2023-06-24T16:31:23;34.63;;;0.80;;
3817;SDS011;1924;48.078;11.516;2023-06-24T16:33:51;34.77;;;0.80;;
3817;SDS011;1924;48.078;11.516;2023-06-24T16:36:17;34.80;;;0.80;;
3817;SDS011;1924;48.078;11.516;2023-06-24T16:38:44;34.80;;;0.80;;
3817;SDS011;1924;48.078;11.516;2023-06-24T16:41:11;34.63;;;0.80;;
3817;SDS011;1924;48.078;11.516;2023-06-24T16:43:38;34.63;;;0.80;;
3817;SDS011;1924;48.078;11.516;2023-06-24T16:46:05;34.57;;;0.80;;
3817;SDS011;1924;48.078;11.516;2023-06-24T16:48:31;34.70;;;0.80;;
3817;SDS011;1924;48.078;11.516;2023-06-24T16:51:00;34.67;;;0.80;;
3817;SDS011;1924;48.078;11.516;2023-06-24T16:53:27;34.73;;;0.80;;
3817;SDS011;1924;48.078;11.516;2023-06-24T16:55:54;34.63;;;0.80;;
3817;SDS011;1924;48.078;11.516;2023-06-24T16:58:20;34.73;;;0.80;;
3817;SDS011;1924;48.078;11.516;2023-06-24T17:00:47;34.80;;;0.80;;
3817;SDS011;1924;48.078;11.516;2023-06-24T17:03:14;34.60;;;0.80;;
3817;SDS011;1924;48.078;11.516;2023-06-24T17:05:41;34.37;;;0.80;;
3817;SDS011;1924;48.078;11.516;2023-06-24T17:08:09;34.57;;;0.80;;
3817;SDS011;1924;48.078;11.516;2023-06-24T17:10:36;34.67;;;0.80;;
3817;SDS011;1924;48.078;11.516;2023-06-24T17:13:03;34.60;;;0.80;;
3817;SDS011;1924;48.078;11.516;2023-06-24T17:15:30;34.57;;;0.80;;
3817;SDS011;1924;48.078;11.516;2023-06-24T17:17:57;34.63;;;0.80;;
3817;SDS011;1924;48.078;11.516;2023-06-24T17:20:24;34.70;;;0.80;;
3817;SDS011;1924;48.078;11.516;2023-06-24T17:22:50;34.73;;;0.80;;
3817;SDS011;1924;48.078;11.516;2023-06-24T17:25:18;34.87;;;0.80;;
3817;SDS011;1924;48.078;11.516;2023-06-24T17:27:45;34.77;;;0.80;;
3817;SDS011;1924;48.078;11.516;2023-06-24T17:30:12;34.73;;;0.80;;
3817;SDS011;1924;48.078;11.516;2023-06-24T17:32:39;34.77;;;0.80;;
3817;SDS011;1924;48.078;11.516;2023-06-24T17:35:07;34.37;;;0.80;;
3817;SDS011;1924;48.078;11.516;2023-06-24T17:37:34;34.80;;;0.80;;
3817;SDS011;1924;48.078;11.516;2023-06-24T17:40:01;34.77;;;0.80;;
3817;SDS011;1924;48.078;11.516;2023-06-24T17:42:29;34.67;;;0.80;;
3817;SDS011;1924;48.078;11.516;2023-06-24T17:44:56;34.73;;;0.80;;
3817;SDS011;1924;48.078;11.516;2023-06-24T17:47:23;34.70;;;0.80;;
3817;SDS011;1924;48.078;11.516;2023-06-24T17:49:50;34.67;;;0.80;;
3817;SDS011;1924;48.078;11.516;2023-06-24T17:52:17;34.70;;;0.80;;
3817;SDS011;1924;48.078;11.516;2023-06-24T17:54:44;34.87;;;0.80;;
3817;SDS011;1924;48.078;11.516;2023-06-24T17:57:10;34.67;;;0.80;;
3817;SDS011;1924;48.078;11.516;2023-06-24T17:59:38;34.70;;;0.80;;
3817;SDS011;1924;48.078;11.516;2023-06-24T18:02:05;34.63;;;0.80;;
3817;SDS011;1924;48.078;11.516;2023-06-24T18:04:32;34.47;;;0.80;;
3817;SDS011;1924;48.078;11.516;2023-06-24T18:06:59;34.60;;;0.80;;
3817;SDS011;1924;48.078;11.516;2023-06-24T18:09:26;34.80;;;0.80;;
3817;SDS011;1924;48.078;11.516;2023-06-24T18:11:52;34.80;;;0.80;;
3817;SDS011;1924;48.078;11.516;2023-06-24T18:14:19;34.67;;;0.80;;
3817;SDS011;1924;48.078;11.516;2023-06-24T18:16:48;34.73;;;0.80;;
3817;SDS011;1924;48.078;11.516;2023-06-24T18:19:16;34.80;;;0.80;;
3817;SDS011;1924;48.078;11.516;2023-06-24T18:21:44;34.93;;;0.80;;
3817;SDS011;1924;48.078;11.516;2023-06-24T18:24:11;34.67;;;0.80;;
3817;SDS011;1924;48.078;11.516;2023-06-24T18:26:38;34.60;;;0.80;;
3817;SDS011;1924;48.078;11.516;2023-06-24T18:29:04;34.73;;;0.80;;
3817;SDS011;1924;48.078;11.516;2023-06-24T18:31:31;34.97;;;0.80;;
3817;SDS011;1924;48.078;11.516;2023-06-24T18:33:59;34.67;;;0.80;;
3817;SDS011;1924;48.078;11.516;2023-06-24T18:36:26;34.80;;;0.80;;
3817;SDS011;1924;48.078;11.516;2023-06-24T18:38:53;34.87;;;0.80;;
3817;SDS011;1924;48.078;11.516;2023-06-24T18:41:20;34.57;;;0.80;;
3817;SDS011;1924;48.078;11.516;2023-06-24T18:43:46;34.67;;;0.80;;
3817;SDS011;1924;48.078;11.516;2023-06-24T18:46:13;34.90;;;0.80;;
3817;SDS011;1924;48.078;11.516;2023-06-24T18:48:40;34.77;;;0.80;;